Time;durP1;ratioP1;P1;durP2;ratioP2;P2;SDS_P1;SDS_P2;PMS_P1;PMS_P2;Temp;Humidity;BMP_temperature;BMP_pressure;BME280_temperature;BME280_humidity;BME280_pressure;Samples;Min_cycle;Max_cycle;Signal;HPM_P1;HPM_P2
2022/08/14 00:01:41;;;;;;;9.40;8.40;;;;;;;19.27;86.30;99988.40;130309;1268;108912;-76
2022/08/14 00:04:46;;;;;;;9.10;8.10;;;;;;;19.24;86.41;99979.12;130355;1268;108887;-76
2022/08/14 00:07:51;;;;;;;9.80;8.80;;;;;;;19.24;86.53;99978.80;130338;1266;107731;-76
2022/08/14 00:10:57;;;;;;;10.80;9.50;;;;;;;19.22;86.62;99975.80;130424;1267;108784;-76
2022/08/14 00:14:03;;;;;;;10.40;9.20;;;;;;;19.22;86.77;99972.05;130424;1267;108759;-76
2022/08/14 00:17:09;;;;;;;9.70;8.70;;;;;;;19.21;86.81;99970.36;130403;1267;108570;-76
2022/08/14 00:20:16;;;;;;;9.80;8.50;;;;;;;19.19;86.81;99964.50;130365;1268;108756;-76
2022/08/14 00:23:22;;;;;;;11.40;8.90;;;;;;;19.18;86.98;99964.35;130297;1266;108871;-76
2022/08/14 00:26:27;;;;;;;10.40;8.90;;;;;;;19.17;87.12;99956.44;130354;1268;108839;-76
2022/08/14 00:29:33;;;;;;;9.80;8.80;;;;;;;19.18;87.20;99957.59;130354;1266;108846;-77
2022/08/14 00:32:39;;;;;;;8.90;8.00;;;;;;;19.17;87.15;99953.56;130309;1268;109022;-77
2022/08/14 00:35:45;;;;;;;9.30;8.40;;;;;;;19.17;87.19;99949.95;130326;1268;108743;-77
2022/08/14 00:38:50;;;;;;;9.90;8.90;;;;;;;19.17;87.31;99945.13;130381;1268;108839;-77
2022/08/14 00:41:56;;;;;;;9.90;8.90;;;;;;;19.18;87.41;99943.48;130364;1268;108796;-77
2022/08/14 00:45:01;;;;;;;9.60;8.70;;;;;;;19.22;87.39;99941.22;130381;1267;108722;-77
2022/08/14 00:48:09;;;;;;;10.20;9.10;;;;;;;19.21;87.54;99940.98;130350;1268;108934;-76
2022/08/14 00:51:14;;;;;;;8.40;7.60;;;;;;;19.20;87.68;99945.15;130314;1268;108997;-75
2022/08/14 00:54:20;;;;;;;10.40;8.50;;;;;;;19.19;87.72;99947.31;130346;1268;108903;-76
2022/08/14 00:57:29;;;;;;;10.00;8.90;;;;;;;19.20;87.85;99946.51;130371;1268;109009;-76
2022/08/14 01:00:35;;;;;;;10.00;9.00;;;;;;;19.24;87.83;99949.45;130425;1267;108613;-76
2022/08/14 01:03:41;;;;;;;9.50;8.50;;;;;;;19.25;87.80;99945.13;130311;1267;109046;-75
2022/08/14 01:06:49;;;;;;;9.70;8.70;;;;;;;19.22;88.04;99948.91;130323;1266;108745;-75
2022/08/14 01:10:00;;;;;;;10.10;9.00;;;;;;;19.24;88.11;99953.08;130412;1268;108806;-76
2022/08/14 01:13:06;;;;;;;10.00;9.00;;;;;;;19.28;88.17;99950.17;130383;1268;108811;-76
2022/08/14 01:16:13;;;;;;;11.00;9.90;;;;;;;19.30;88.17;99956.66;130379;1268;108610;-75
2022/08/14 01:22:44;;;;;;;9.20;8.30;;;;;;;19.39;88.26;99963.23;130374;1268;108829;-76
2022/08/14 01:25:53;;;;;;;9.30;8.10;;;;;;;19.42;88.22;99959.45;130344;1267;108922;-76
2022/08/14 01:29:01;;;;;;;9.80;8.20;;;;;;;19.43;88.46;99961.55;130353;1267;108745;-76
2022/08/14 01:32:07;;;;;;;10.50;9.00;;;;;;;19.45;88.78;99962.27;130394;1266;108591;-75
2022/08/14 01:35:12;;;;;;;9.60;8.40;;;;;;;19.46;88.84;99955.52;130386;1268;108852;-76
2022/08/14 01:38:18;;;;;;;10.00;8.00;;;;;;;19.42;89.17;99950.58;130370;1268;107825;-76
2022/08/14 01:41:25;;;;;;;9.30;7.50;;;;;;;19.39;89.92;99942.29;130376;1268;108702;-75
2022/08/14 01:44:30;;;;;;;8.70;7.80;;;;;;;19.38;89.63;99945.37;130354;1268;108835;-75
2022/08/14 01:47:36;;;;;;;8.00;7.20;;;;;;;19.40;89.66;99946.08;130338;1267;110100;-75
2022/08/14 01:50:42;;;;;;;7.50;6.70;;;;;;;19.39;89.86;99941.29;130353;1267;108743;-75
2022/08/14 01:53:52;;;;;;;7.70;6.90;;;;;;;19.40;89.78;99937.03;130397;1268;108984;-75
2022/08/14 01:56:58;;;;;;;8.10;7.10;;;;;;;19.42;89.75;99930.06;130398;1267;108180;-75
2022/08/14 02:00:07;;;;;;;8.10;6.90;;;;;;;19.45;89.80;99927.22;130373;1267;108963;-76
2022/08/14 02:03:13;;;;;;;9.10;6.60;;;;;;;19.43;89.80;99924.64;130138;1268;108861;-76
2022/08/14 02:06:18;;;;;;;7.40;6.60;;;;;;;19.45;89.96;99922.13;130268;1268;108866;-76
2022/08/14 02:09:24;;;;;;;9.00;6.70;;;;;;;19.47;89.99;99910.62;130354;1268;109138;-76
2022/08/14 02:12:29;;;;;;;7.50;6.70;;;;;;;19.49;89.93;99915.39;130409;1267;108957;-76
2022/08/14 02:15:35;;;;;;;7.50;6.70;;;;;;;19.48;90.01;99909.58;130322;1267;108760;-78
2022/08/14 02:18:41;;;;;;;7.60;6.80;;;;;;;19.46;90.13;99904.14;130361;1268;108736;-76
2022/08/14 02:21:48;;;;;;;7.80;6.80;;;;;;;19.49;90.27;99901.09;130350;1268;108696;-77
2022/08/14 02:24:54;;;;;;;8.00;6.70;;;;;;;19.52;90.13;99900.47;130423;1267;109183;-76
2022/08/14 02:27:59;;;;;;;7.50;6.80;;;;;;;19.45;90.22;99895.73;130364;1268;108991;-76
2022/08/14 02:31:07;;;;;;;7.50;6.70;;;;;;;19.43;90.50;99891.84;130384;1268;108932;-76
2022/08/14 02:34:17;;;;;;;7.90;6.90;;;;;;;19.48;90.38;99893.70;130386;1268;107326;-76
2022/08/14 02:37:22;;;;;;;9.20;7.30;;;;;;;19.45;90.32;99899.15;130341;1267;108780;-76
2022/08/14 02:40:31;;;;;;;8.90;6.90;;;;;;;19.43;90.57;99899.74;130348;1268;108751;-76
2022/08/14 02:43:37;;;;;;;8.30;7.00;;;;;;;19.44;90.63;99893.75;130317;1266;108511;-76
2022/08/14 02:46:43;;;;;;;9.60;7.30;;;;;;;19.46;90.63;99884.91;130435;1266;107088;-75
2022/08/14 02:49:49;;;;;;;8.30;7.50;;;;;;;19.43;90.48;99885.19;130384;1268;108252;-76
2022/08/14 02:52:55;;;;;;;10.00;7.70;;;;;;;19.35;90.50;99885.63;130429;1267;108897;-76
2022/08/14 02:56:01;;;;;;;9.80;8.00;;;;;;;19.20;90.85;99883.89;130392;1268;109014;-75
2022/08/14 02:59:09;;;;;;;9.10;7.40;;;;;;;19.09;91.05;99887.98;130362;1266;108669;-75
2022/08/14 03:02:15;;;;;;;8.70;7.00;;;;;;;19.01;91.40;99891.12;130441;1268;108872;-76
2022/08/14 03:05:22;;;;;;;10.10;7.90;;;;;;;18.97;91.50;99889.24;130383;1266;108108;-75
2022/08/14 03:08:32;;;;;;;8.50;7.70;;;;;;;19.00;91.73;99889.23;130360;1267;108756;-78
2022/08/14 03:11:38;;;;;;;9.40;8.20;;;;;;;18.96;91.93;99889.38;130332;1266;108744;-75
2022/08/14 03:14:47;;;;;;;9.60;7.40;;;;;;;18.90;92.57;99885.75;130334;1267;107622;-77
2022/08/14 03:17:52;;;;;;;9.60;8.60;;;;;;;18.85;92.72;99882.45;130373;1267;108119;-76
2022/08/14 03:20:58;;;;;;;10.90;8.80;;;;;;;18.81;92.91;99870.86;130403;1268;108865;-77
2022/08/14 03:24:11;;;;;;;9.40;8.10;;;;;;;18.74;93.11;99869.05;130382;1267;108779;-76
2022/08/14 03:27:16;;;;;;;10.80;8.70;;;;;;;18.72;93.18;99874.39;130331;1267;108543;-77
2022/08/14 03:30:22;;;;;;;10.60;9.00;;;;;;;18.69;93.50;99868.65;130341;1267;108192;-77
2022/08/14 03:33:28;;;;;;;10.40;8.70;;;;;;;18.67;93.58;99868.00;130344;1268;109731;-77
2022/08/14 03:36:33;;;;;;;9.80;8.20;;;;;;;18.66;93.36;99868.17;130326;1268;108766;-76
2022/08/14 03:39:39;;;;;;;8.60;7.80;;;;;;;18.64;93.69;99875.30;130315;1268;109025;-76
2022/08/14 03:42:44;;;;;;;9.50;8.20;;;;;;;18.65;93.63;99873.29;130352;1268;107856;-76
2022/08/14 03:45:49;;;;;;;9.90;8.80;;;;;;;18.71;93.60;99867.60;130438;1267;108856;-76
2022/08/14 03:48:55;;;;;;;11.60;8.80;;;;;;;18.73;93.59;99866.14;130445;1268;109131;-76
2022/08/14 03:52:03;;;;;;;11.20;8.40;;;;;;;18.73;93.34;99860.61;130471;1268;107546;-77
2022/08/14 03:55:12;;;;;;;8.80;7.80;;;;;;;18.75;93.38;99858.73;130441;1268;108877;-76
2022/08/14 03:58:17;;;;;;;10.10;8.70;;;;;;;18.75;93.34;99854.11;130446;1267;108945;-76
2022/08/14 04:01:24;;;;;;;10.20;9.20;;;;;;;18.76;93.53;99857.39;130402;1268;108651;-76
2022/08/14 04:04:30;;;;;;;10.60;8.60;;;;;;;18.77;93.59;99854.14;130387;1267;109023;-76
2022/08/14 04:07:37;;;;;;;10.30;8.80;;;;;;;18.79;93.46;99857.50;130445;1267;108727;-77
2022/08/14 04:10:44;;;;;;;11.90;8.90;;;;;;;18.79;93.67;99864.12;130380;1266;108741;-75
2022/08/14 04:13:49;;;;;;;10.30;9.20;;;;;;;18.82;93.70;99869.70;130421;1268;108659;-76
2022/08/14 04:16:54;;;;;;;9.30;8.10;;;;;;;18.85;93.71;99869.59;130401;1267;107601;-76
2022/08/14 04:20:02;;;;;;;12.00;8.80;;;;;;;18.91;93.74;99863.79;129458;1268;1338673;-76
2022/08/14 04:23:09;;;;;;;10.20;9.10;;;;;;;18.95;93.72;99860.52;130478;1267;107606;-76
2022/08/14 04:26:17;;;;;;;10.90;9.60;;;;;;;19.00;93.69;99851.45;130461;1266;108752;-75
2022/08/14 04:29:23;;;;;;;9.70;8.70;;;;;;;19.02;93.92;99849.15;130479;1267;108735;-76
2022/08/14 04:32:28;;;;;;;9.80;8.70;;;;;;;19.07;94.00;99855.15;130470;1268;108683;-76
2022/08/14 04:35:34;;;;;;;9.70;8.70;;;;;;;19.15;93.97;99857.97;130459;1268;108759;-75
2022/08/14 04:45:31;;;;;;;9.60;8.30;;;;;;;19.45;93.37;99858.06;130414;1268;108759;-74
2022/08/14 04:48:37;;;;;;;8.90;8.10;;;;;;;19.42;93.30;99859.73;130472;1268;108727;-73
2022/08/14 04:51:42;;;;;;;9.50;8.50;;;;;;;19.50;93.39;99865.14;130481;1267;109485;-73
2022/08/14 04:54:48;;;;;;;11.00;8.80;;;;;;;19.59;92.98;99868.43;130371;1268;108838;-77
2022/08/14 04:57:53;;;;;;;12.40;8.30;;;;;;;19.59;92.84;99866.90;130434;1268;108977;-77
2022/08/14 05:01:01;;;;;;;8.80;7.30;;;;;;;19.60;92.79;99868.89;130435;1266;108915;-78
2022/08/14 05:04:07;;;;;;;10.40;8.40;;;;;;;19.62;92.84;99865.88;130461;1267;108768;-76
2022/08/14 05:07:12;;;;;;;9.70;7.90;;;;;;;19.69;92.84;99866.32;130266;1268;108504;-77
2022/08/14 05:10:22;;;;;;;11.80;8.20;;;;;;;19.76;92.74;99867.60;130288;1268;108962;-77
2022/08/14 05:13:29;;;;;;;9.70;7.60;;;;;;;19.89;92.66;99870.48;130451;1268;108783;-77
2022/08/14 05:16:35;;;;;;;11.30;7.70;;;;;;;19.97;92.31;99866.65;130459;1268;108861;-77
2022/08/14 05:19:41;;;;;;;9.80;8.80;;;;;;;19.99;92.38;99869.76;130444;1268;108881;-77
2022/08/14 05:22:46;;;;;;;10.80;9.70;;;;;;;20.07;92.18;99872.59;130471;1266;107633;-77
2022/08/14 05:25:56;;;;;;;10.30;8.10;;;;;;;20.08;92.03;99867.83;130466;1268;108956;-75
2022/08/14 05:29:02;;;;;;;8.70;7.60;;;;;;;19.98;92.04;99871.67;130527;1268;108827;-76
2022/08/14 05:32:08;;;;;;;9.90;7.60;;;;;;;19.95;92.17;99866.71;130483;1267;108717;-76
2022/08/14 05:35:13;;;;;;;11.70;8.20;;;;;;;20.02;92.15;99862.52;130441;1267;108563;-76
2022/08/14 05:38:21;;;;;;;8.60;7.60;;;;;;;20.10;91.98;99859.72;130456;1268;108767;-77
2022/08/14 05:41:27;;;;;;;8.50;7.30;;;;;;;20.14;92.07;99857.75;130460;1268;108907;-76
2022/08/14 05:44:32;;;;;;;8.50;7.40;;;;;;;20.22;91.93;99855.25;130448;1267;108980;-77
2022/08/14 05:47:41;;;;;;;11.00;8.00;;;;;;;20.28;91.64;99858.52;130462;1267;107681;-76
2022/08/14 05:50:47;;;;;;;9.80;8.60;;;;;;;20.34;91.37;99854.23;130477;1267;108932;-76
2022/08/14 05:53:52;;;;;;;7.90;7.10;;;;;;;20.40;91.46;99847.81;130468;1268;108665;-75
2022/08/14 05:56:58;;;;;;;6.90;6.20;;;;;;;20.54;91.20;99850.52;130455;1268;108683;-74
2022/08/14 06:00:04;;;;;;;8.20;7.40;;;;;;;20.72;91.31;99849.69;130429;1268;108830;-74
2022/08/14 06:03:13;;;;;;;10.20;8.20;;;;;;;20.91;90.97;99844.65;130468;1268;109067;-75
2022/08/14 06:06:19;;;;;;;9.90;8.80;;;;;;;21.03;90.75;99843.90;130457;1268;108806;-78
2022/08/14 06:09:24;;;;;;;8.60;7.80;;;;;;;21.19;90.63;99848.59;130432;1268;108808;-77
2022/08/14 06:12:30;;;;;;;7.20;6.10;;;;;;;21.29;90.15;99849.33;130348;1267;108753;-78
2022/08/14 06:15:35;;;;;;;6.50;5.90;;;;;;;21.50;90.07;99853.05;130366;1268;108864;-78
2022/08/14 06:18:41;;;;;;;7.60;5.80;;;;;;;21.77;89.75;99848.41;130373;1266;109376;-78
2022/08/14 06:21:46;;;;;;;9.20;7.20;;;;;;;22.12;89.42;99850.39;130465;1267;108897;-77
2022/08/14 06:24:51;;;;;;;7.50;6.50;;;;;;;22.43;89.04;99849.00;130375;1267;109186;-78
2022/08/14 06:27:57;;;;;;;7.10;6.40;;;;;;;22.69;88.46;99853.90;130443;1267;108918;-77
2022/08/14 06:31:03;;;;;;;6.70;6.00;;;;;;;22.95;88.54;99852.44;130368;1268;109009;-77
2022/08/14 06:34:08;;;;;;;9.10;8.10;;;;;;;23.12;87.16;99849.73;130339;1268;108659;-77
2022/08/14 06:37:15;;;;;;;10.70;8.00;;;;;;;23.20;87.45;99843.48;130417;1268;108910;-77
2022/08/14 06:40:23;;;;;;;7.40;6.70;;;;;;;23.29;87.38;99841.87;130350;1268;108931;-77
2022/08/14 06:43:28;;;;;;;10.30;8.20;;;;;;;23.27;86.96;99845.52;130433;1268;108684;-77
2022/08/14 06:46:34;;;;;;;9.70;8.80;;;;;;;23.31;86.93;99849.60;130431;1268;108665;-76
2022/08/14 06:49:40;;;;;;;12.00;9.90;;;;;;;23.27;86.62;99848.65;130385;1268;108694;-75
2022/08/14 06:52:45;;;;;;;8.20;7.00;;;;;;;23.21;86.93;99846.42;130340;1268;108137;-76
2022/08/14 06:55:52;;;;;;;10.10;9.10;;;;;;;23.17;86.60;99842.61;130311;1268;108945;-77
2022/08/14 06:58:57;;;;;;;11.00;9.60;;;;;;;22.97;85.86;99840.27;130352;1268;107499;-76
2022/08/14 07:08:50;;;;;;;9.20;8.10;;;;;;;22.35;87.49;99847.05;130270;1267;109612;-74
2022/08/14 07:11:55;;;;;;;9.70;8.60;;;;;;;22.42;87.37;99841.89;130368;1267;108680;-75
2022/08/14 07:15:01;;;;;;;11.50;9.30;;;;;;;22.45;87.25;99838.81;130264;1268;109011;-75
2022/08/14 07:18:07;;;;;;;10.80;9.70;;;;;;;22.44;87.49;99839.38;130284;1268;108800;-74
2022/08/14 07:21:12;;;;;;;10.70;9.00;;;;;;;22.32;87.01;99841.98;130332;1267;108712;-75
2022/08/14 07:24:18;;;;;;;11.00;9.10;;;;;;;22.31;87.43;99837.83;130498;1268;109003;-75
2022/08/14 07:27:24;;;;;;;11.60;9.70;;;;;;;22.39;87.48;99833.59;130531;1266;109478;-77
2022/08/14 07:30:29;;;;;;;12.20;10.80;;;;;;;22.44;87.29;99830.09;130457;1268;108673;-75
2022/08/14 07:33:37;;;;;;;10.90;9.80;;;;;;;22.42;86.94;99831.29;130436;1268;108942;-75
2022/08/14 07:36:42;;;;;;;11.50;10.00;;;;;;;22.44;87.40;99832.05;130387;1268;108709;-76
2022/08/14 07:39:52;;;;;;;10.30;9.40;;;;;;;22.60;86.85;99831.11;130394;1267;108992;-77
2022/08/14 07:42:58;;;;;;;10.50;9.40;;;;;;;22.66;86.92;99836.72;130462;1268;108721;-76
2022/08/14 07:46:04;;;;;;;10.20;9.20;;;;;;;22.75;87.08;99830.63;130349;1267;107256;-77
2022/08/14 07:49:11;;;;;;;11.00;9.60;;;;;;;22.75;86.32;99833.56;130537;1267;107403;-75
2022/08/14 07:52:16;;;;;;;11.50;9.40;;;;;;;22.62;86.66;99831.58;130473;1267;109730;-76
2022/08/14 07:55:22;;;;;;;10.90;9.50;;;;;;;22.59;87.08;99832.88;130457;1268;108842;-77
2022/08/14 07:58:27;;;;;;;10.70;9.30;;;;;;;22.54;87.10;99833.88;130313;1268;108841;-76
2022/08/14 08:01:33;;;;;;;10.80;9.70;;;;;;;22.52;86.96;99837.42;130508;1268;109768;-75
2022/08/14 08:04:43;;;;;;;11.60;10.40;;;;;;;22.51;86.76;99838.45;130472;1268;108728;-75
2022/08/14 08:07:50;;;;;;;11.80;9.70;;;;;;;22.44;87.02;99838.36;130394;1268;107064;-75
2022/08/14 08:10:59;;;;;;;11.20;9.00;;;;;;;22.44;87.17;99834.35;130339;1267;108825;-75
2022/08/14 08:14:06;;;;;;;11.20;10.10;;;;;;;22.47;87.25;99840.38;130301;1268;108853;-77
2022/08/14 08:17:12;;;;;;;10.90;9.70;;;;;;;22.58;87.01;99844.34;130411;1268;107214;-77
2022/08/14 08:20:20;;;;;;;10.90;9.40;;;;;;;22.80;86.59;99843.11;130312;1268;109011;-76
2022/08/14 08:23:28;;;;;;;9.60;8.50;;;;;;;23.03;86.55;99840.17;130284;1268;108684;-76
2022/08/14 08:26:34;;;;;;;10.10;9.00;;;;;;;23.12;86.03;99842.95;130229;1268;108988;-77
2022/08/14 08:29:39;;;;;;;9.70;8.70;;;;;;;23.21;86.27;99841.20;130255;1268;108578;-74
2022/08/14 08:32:45;;;;;;;11.80;9.90;;;;;;;23.27;86.02;99842.51;130366;1268;108867;-73
2022/08/14 08:35:50;;;;;;;11.20;9.90;;;;;;;23.26;85.68;99841.18;130308;1268;109078;-79
2022/08/14 08:39:00;;;;;;;11.00;10.00;;;;;;;23.33;85.45;99841.88;130576;1268;108618;-80
2022/08/14 08:42:06;;;;;;;11.20;9.10;;;;;;;23.42;85.23;99843.77;130453;1268;108895;-79
2022/08/14 08:45:16;;;;;;;10.70;9.70;;;;;;;23.56;85.08;99841.87;130372;1268;109046;-78
2022/08/14 08:48:22;;;;;;;11.10;9.80;;;;;;;23.72;84.69;99841.58;130389;1268;108739;-72
2022/08/14 08:51:30;;;;;;;13.70;10.10;;;;;;;23.81;84.29;99847.23;130400;1268;107744;-73
2022/08/14 08:54:36;;;;;;;10.60;9.50;;;;;;;23.75;84.38;99844.38;130354;1268;108830;-73
2022/08/14 08:57:41;;;;;;;10.50;9.50;;;;;;;23.75;84.32;99844.98;130361;1268;108789;-74
2022/08/14 09:00:50;;;;;;;10.50;9.20;;;;;;;23.75;84.06;99842.64;130422;1267;109020;-72
2022/08/14 09:04:03;;;;;;;10.70;9.60;;;;;;;23.87;84.20;99834.41;130417;1267;108584;-74
2022/08/14 09:07:09;;;;;;;10.50;9.50;;;;;;;24.12;83.93;99833.04;130456;1268;108806;-73
2022/08/14 09:10:14;;;;;;;10.70;9.70;;;;;;;24.45;83.60;99830.13;130381;1267;108971;-72
2022/08/14 09:13:22;;;;;;;12.00;10.20;;;;;;;24.58;83.16;99828.60;130312;1268;108714;-72
2022/08/14 09:16:27;;;;;;;11.70;10.50;;;;;;;24.68;82.73;99829.69;130266;1268;108623;-73
2022/08/14 09:19:33;;;;;;;12.60;9.80;;;;;;;24.67;82.20;99825.48;130405;1268;109040;-73
2022/08/14 09:22:39;;;;;;;10.50;9.40;;;;;;;24.48;81.11;99826.45;130446;1268;109016;-79
2022/08/14 09:25:47;;;;;;;10.80;9.70;;;;;;;24.25;81.75;99827.90;130437;1266;108598;-77
2022/08/14 09:28:53;;;;;;;11.20;10.00;;;;;;;24.29;81.64;99820.87;130406;1268;108959;-78
2022/08/14 09:32:03;;;;;;;11.00;9.90;;;;;;;24.39;81.41;99814.33;130369;1268;108964;-78
2022/08/14 09:35:21;;;;;;;9.90;8.90;;;;;;;24.43;80.97;99805.98;130446;1268;108133;-80
2022/08/14 09:38:33;;;;;;;10.80;8.90;;;;;;;24.58;81.03;99801.80;130478;1268;109027;-78
2022/08/14 09:41:53;;;;;;;13.10;9.90;;;;;;;24.71;80.53;99803.69;130375;1267;108764;-75
2022/08/14 09:45:12;;;;;;;10.70;9.60;;;;;;;24.85;80.09;99800.11;130369;1268;109677;-76
2022/08/14 09:48:19;;;;;;;10.60;9.50;;;;;;;25.01;79.43;99805.59;130522;1267;109131;-75
2022/08/14 09:51:26;;;;;;;11.50;9.70;;;;;;;25.03;79.61;99809.33;130477;1266;108658;-75
2022/08/14 09:54:39;;;;;;;10.70;9.40;;;;;;;25.17;79.67;99807.10;130411;1267;109048;-74
2022/08/14 09:57:45;;;;;;;11.40;9.50;;;;;;;25.25;78.97;99804.92;130392;1268;108994;-74
2022/08/14 10:00:53;;;;;;;10.30;9.20;;;;;;;25.29;78.94;99800.25;130387;1268;107410;-74
2022/08/14 10:03:59;;;;;;;10.90;9.50;;;;;;;25.24;78.27;99799.41;130482;1268;108165;-76
2022/08/14 10:07:05;;;;;;;9.90;8.90;;;;;;;25.22;78.76;99801.44;130417;1268;108685;-77
2022/08/14 10:10:13;;;;;;;11.40;10.20;;;;;;;25.28;78.45;99802.96;130499;1268;107709;-78
2022/08/14 10:13:26;;;;;;;11.90;10.60;;;;;;;25.38;78.56;99794.04;130421;1268;108731;-77
2022/08/14 10:16:43;;;;;;;11.70;9.40;;;;;;;25.48;78.45;99794.54;130417;1268;108955;-75
2022/08/14 10:19:50;;;;;;;11.10;9.40;;;;;;;25.49;77.45;99801.36;130385;1268;108657;-76
2022/08/14 10:22:56;;;;;;;10.50;9.40;;;;;;;25.35;76.23;99797.88;130434;1268;107829;-74
2022/08/14 10:26:07;;;;;;;10.90;9.70;;;;;;;25.26;77.28;99794.92;130373;1267;108917;-75
2022/08/14 10:29:16;;;;;;;11.30;9.80;;;;;;;25.41;77.53;99794.10;130425;1268;108252;-76
2022/08/14 10:32:26;;;;;;;11.10;9.90;;;;;;;25.56;76.82;99793.59;130318;1268;108812;-73
2022/08/14 10:35:43;;;;;;;12.90;11.60;;;;;;;25.64;76.92;99792.12;130306;1268;109155;-77
2022/08/14 10:38:58;;;;;;;11.60;10.30;;;;;;;25.68;75.89;99785.64;130409;1268;108846;-73
2022/08/14 10:42:06;;;;;;;13.40;12.00;;;;;;;25.59;75.47;99790.99;130428;1268;108985;-74
2022/08/14 10:45:22;;;;;;;13.50;12.10;;;;;;;25.53;74.63;99790.90;130423;1268;108436;-73
2022/08/14 10:48:28;;;;;;;12.80;11.60;;;;;;;25.51;75.27;99785.70;130425;1268;108791;-73
2022/08/14 10:51:35;;;;;;;14.90;12.00;;;;;;;25.54;75.59;99788.02;130516;1268;108709;-75
2022/08/14 10:54:43;;;;;;;13.10;11.90;;;;;;;25.52;75.20;99792.38;130323;1268;107891;-74
2022/08/14 10:57:53;;;;;;;12.80;11.50;;;;;;;25.50;75.45;99791.42;130411;1268;109039;-76
2022/08/14 11:01:06;;;;;;;12.20;10.90;;;;;;;25.49;75.30;99789.34;130389;1268;109779;-75
2022/08/14 11:04:27;;;;;;;13.10;11.40;;;;;;;25.47;74.94;99783.59;130456;1268;108999;-78
2022/08/14 11:07:33;;;;;;;12.50;11.20;;;;;;;25.47;75.14;99785.57;130494;1267;108447;-77
2022/08/14 11:10:45;;;;;;;11.10;10.00;;;;;;;25.67;74.62;99783.39;130468;1267;108669;-75
2022/08/14 11:13:51;;;;;;;12.50;11.00;;;;;;;25.70;73.40;99779.96;130391;1268;108906;-75
2022/08/14 11:16:57;;;;;;;12.90;11.50;;;;;;;25.73;74.01;99783.05;130389;1268;108971;-76
2022/08/14 11:20:04;;;;;;;11.90;10.70;;;;;;;25.74;73.70;99786.55;130396;1268;109000;-74
2022/08/14 11:23:12;;;;;;;12.10;10.90;;;;;;;25.70;73.81;99781.98;130417;1267;108834;-73
2022/08/14 11:26:19;;;;;;;13.30;11.90;;;;;;;25.64;73.82;99785.89;130407;1268;108752;-75
2022/08/14 11:29:25;;;;;;;12.00;10.50;;;;;;;25.70;73.20;99780.78;130366;1268;108920;-72
2022/08/14 11:32:31;;;;;;;11.30;10.20;;;;;;;25.83;73.09;99776.27;130448;1268;107270;-71
2022/08/14 11:35:37;;;;;;;11.10;9.80;;;;;;;25.95;73.05;99777.98;130503;1268;108694;-74
2022/08/14 11:38:44;;;;;;;11.00;10.00;;;;;;;26.06;72.43;99771.30;130377;1268;108521;-75
2022/08/14 11:41:50;;;;;;;11.80;10.60;;;;;;;26.06;73.18;99771.74;130315;1268;108721;-76
2022/08/14 11:44:59;;;;;;;11.70;10.20;;;;;;;26.20;73.39;99771.90;130324;1268;108829;-74
2022/08/14 11:48:17;;;;;;;10.80;9.70;;;;;;;26.30;72.88;99770.85;130157;1267;107594;-76
2022/08/14 11:51:25;;;;;;;12.80;10.30;;;;;;;26.29;72.75;99774.33;130244;1266;108958;-75
2022/08/14 11:54:32;;;;;;;11.40;10.30;;;;;;;26.19;72.25;99780.54;130333;1268;109547;-78
2022/08/14 11:57:38;;;;;;;10.90;9.80;;;;;;;25.97;72.61;99778.77;130379;1268;108814;-74
2022/08/14 12:00:52;;;;;;;11.00;9.50;;;;;;;25.87;72.72;99776.17;130329;1268;109106;-78
2022/08/14 12:04:12;;;;;;;11.10;9.90;;;;;;;25.98;72.40;99781.01;130336;1268;108576;-71
2022/08/14 12:07:17;;;;;;;12.10;10.80;;;;;;;26.09;71.83;99779.52;130202;1268;108802;-69
2022/08/14 12:10:23;;;;;;;11.80;10.70;;;;;;;26.39;72.11;99765.94;130271;1268;109734;-69
2022/08/14 12:13:32;;;;;;;11.10;10.10;;;;;;;26.71;71.81;99761.96;130240;1268;108385;-69
2022/08/14 12:16:38;;;;;;;12.70;11.40;;;;;;;26.84;70.89;99759.57;130254;1268;108733;-68
2022/08/14 12:19:51;;;;;;;12.10;10.80;;;;;;;26.69;70.58;99758.41;131346;1268;108778;-68
2022/08/14 12:22:57;;;;;;;12.10;10.90;;;;;;;26.42;71.18;99761.95;130999;1268;108644;-71
2022/08/14 12:26:08;;;;;;;13.10;11.80;;;;;;;26.31;70.46;99755.41;130115;1268;108726;-69
2022/08/14 12:29:15;;;;;;;13.50;12.20;;;;;;;26.27;69.98;99755.63;130193;1268;107096;-69
2022/08/14 12:32:21;;;;;;;12.90;11.70;;;;;;;26.31;69.86;99755.30;130193;1268;109205;-68
2022/08/14 12:35:37;;;;;;;13.10;11.60;;;;;;;26.26;70.64;99757.04;130210;1268;108819;-68
2022/08/14 12:38:44;;;;;;;13.60;12.30;;;;;;;26.38;69.87;99750.83;130137;1268;108537;-68
2022/08/14 12:41:55;;;;;;;13.80;12.40;;;;;;;26.56;69.36;99746.27;130174;1268;107280;-68
2022/08/14 12:45:00;;;;;;;14.00;12.40;;;;;;;26.53;69.35;99743.37;130186;1268;108751;-69
2022/08/14 12:48:07;;;;;;;14.70;13.30;;;;;;;26.39;69.07;99749.36;130217;1268;108873;-68
2022/08/14 12:51:20;;;;;;;14.80;13.40;;;;;;;26.21;69.10;99743.85;130155;1268;108872;-68
2022/08/14 12:54:25;;;;;;;14.00;12.60;;;;;;;26.09;69.52;99741.41;130144;1269;109049;-68
2022/08/14 12:57:40;;;;;;;14.50;13.00;;;;;;;25.89;69.72;99741.86;130141;1268;108608;-68
2022/08/14 13:00:51;;;;;;;14.20;12.90;;;;;;;25.68;69.92;99744.54;130185;1268;108977;-68
2022/08/14 13:04:09;;;;;;;14.40;12.90;;;;;;;25.62;69.88;99739.80;130153;1268;108928;-68
2022/08/14 13:07:14;;;;;;;14.70;13.30;;;;;;;25.63;69.59;99733.03;130190;1268;108805;-68
2022/08/14 13:10:21;;;;;;;15.10;13.70;;;;;;;25.64;69.78;99729.70;130139;1268;108881;-72
2022/08/14 13:13:33;;;;;;;16.20;14.50;;;;;;;25.60;69.83;99727.51;130203;1268;109003;-69
2022/08/14 13:16:38;;;;;;;17.40;15.60;;;;;;;25.59;69.74;99721.88;130150;1268;107537;-67
2022/08/14 13:19:45;;;;;;;16.70;15.00;;;;;;;25.53;69.48;99713.80;130099;1268;108579;-67
2022/08/14 13:22:51;;;;;;;16.50;15.00;;;;;;;25.44;69.60;99707.53;130229;1268;108852;-67
2022/08/14 13:25:58;;;;;;;17.20;15.50;;;;;;;25.36;69.59;99698.27;130159;1268;107554;-67
2022/08/14 13:29:06;;;;;;;16.70;15.00;;;;;;;25.35;69.87;99692.99;130209;1268;108460;-69
2022/08/14 13:32:12;;;;;;;16.70;15.10;;;;;;;25.34;69.66;99691.31;130093;1268;109563;-67
2022/08/14 13:35:19;;;;;;;14.80;13.30;;;;;;;25.34;69.93;99687.83;130177;1268;108892;-67
2022/08/14 13:38:24;;;;;;;16.20;14.30;;;;;;;25.38;69.74;99683.02;130201;1268;108785;-67
2022/08/14 13:41:32;;;;;;;15.20;13.80;;;;;;;25.39;69.03;99675.55;130176;1268;109500;-70
2022/08/14 13:44:38;;;;;;;16.80;15.20;;;;;;;25.43;69.24;99664.59;130224;1268;108741;-68
2022/08/14 13:47:44;;;;;;;16.40;14.80;;;;;;;25.43;69.51;99657.77;130212;1268;108218;-68
2022/08/14 13:50:55;;;;;;;16.00;14.40;;;;;;;25.43;68.95;99651.00;130220;1268;107844;-68
2022/08/14 13:54:02;;;;;;;15.70;14.20;;;;;;;25.40;69.10;99645.95;130318;1268;109582;-70
2022/08/14 13:57:11;;;;;;;16.00;14.30;;;;;;;25.37;68.38;99643.09;130338;1268;108723;-69
2022/08/14 14:00:18;;;;;;;16.20;14.70;;;;;;;25.40;68.96;99638.68;130245;1268;108965;-69
2022/08/14 14:03:25;;;;;;;15.60;14.10;;;;;;;25.44;68.67;99629.64;130206;1268;107933;-67
2022/08/14 14:06:33;;;;;;;16.10;14.50;;;;;;;25.44;68.80;99628.23;130225;1268;108850;-69
2022/08/14 14:09:41;;;;;;;15.40;13.90;;;;;;;25.43;68.99;99626.63;130225;1268;109016;-69
2022/08/14 14:12:48;;;;;;;16.00;14.40;;;;;;;25.42;68.85;99620.08;130222;1268;107135;-67
2022/08/14 14:15:54;;;;;;;15.20;13.60;;;;;;;25.44;68.94;99618.17;130226;1268;107508;-67
2022/08/14 14:19:02;;;;;;;15.30;13.80;;;;;;;25.43;69.01;99619.64;130185;1268;108843;-67
2022/08/14 14:22:07;;;;;;;15.10;13.60;;;;;;;25.47;68.99;99611.73;130197;1268;108951;-70
2022/08/14 14:25:15;;;;;;;15.80;14.20;;;;;;;25.58;68.88;99603.36;130189;1268;108672;-67
2022/08/14 14:28:24;;;;;;;15.70;14.20;;;;;;;25.64;68.63;99603.92;130240;1268;107071;-68